createdAt,value
2019-02-17T00:00:38.829Z,50.50
2019-02-17T00:03:07.390Z,50.40
2019-02-17T00:05:35.899Z,46.07
2019-02-17T00:08:04.627Z,49.93
2019-02-17T00:10:33.278Z,49.10
2019-02-17T00:13:01.857Z,50.43
2019-02-17T00:15:30.440Z,50.67
2019-02-17T00:17:59.007Z,48.53
2019-02-17T00:20:27.594Z,46.90
2019-02-17T00:22:56.156Z,43.20
2019-02-17T00:25:24.742Z,46.67
2019-02-17T00:27:53.315Z,44.03
2019-02-17T00:30:21.892Z,47.83
2019-02-17T00:32:50.456Z,45.33
2019-02-17T00:35:18.972Z,43.77
2019-02-17T00:37:47.538Z,49.83
2019-02-17T00:40:16.029Z,47.83
2019-02-17T00:42:44.916Z,46.00
2019-02-17T00:45:13.482Z,48.27
2019-02-17T00:47:42.071Z,44.60
2019-02-17T00:50:12.432Z,43.90
2019-02-17T00:52:41.006Z,44.37
2019-02-17T00:55:09.641Z,50.90
2019-02-17T00:57:38.226Z,43.27
2019-02-17T01:00:09.930Z,44.67
2019-02-17T01:02:38.445Z,43.70
2019-02-17T01:05:07.249Z,47.13
2019-02-17T01:07:35.834Z,49.03
2019-02-17T01:10:06.538Z,47.03
2019-02-17T01:12:35.135Z,45.63
2019-02-17T01:15:04.172Z,46.83
2019-02-17T01:17:32.746Z,50.47
2019-02-17T01:20:01.239Z,51.23
2019-02-17T01:22:29.838Z,49.20
2019-02-17T01:24:58.330Z,47.07
2019-02-17T01:27:26.931Z,48.97
2019-02-17T01:29:55.506Z,50.63
2019-02-17T01:32:24.082Z,46.57
2019-02-17T01:34:52.739Z,48.87
2019-02-17T01:37:21.316Z,45.17
2019-02-17T01:39:51.897Z,48.03
2019-02-17T01:42:20.768Z,49.07
2019-02-17T01:44:49.327Z,45.57
2019-02-17T01:47:17.983Z,44.60
2019-02-17T01:49:46.554Z,51.57
2019-02-17T01:52:15.078Z,44.07
2019-02-17T01:54:43.638Z,47.37
2019-02-17T01:57:12.273Z,44.03
2019-02-17T01:59:40.785Z,50.47
2019-02-17T02:02:09.374Z,45.70
2019-02-17T02:04:38.002Z,49.97
2019-02-17T02:07:08.488Z,45.73
2019-02-17T02:09:37.050Z,48.97
2019-02-17T02:12:05.693Z,41.30
2019-02-17T02:14:34.210Z,44.00
2019-02-17T02:17:03.111Z,48.57
2019-02-17T02:19:31.673Z,47.30
2019-02-17T02:22:00.256Z,45.03
2019-02-17T02:24:28.822Z,47.40
2019-02-17T02:26:57.390Z,43.43
2019-02-17T02:29:25.897Z,43.00
2019-02-17T02:31:54.469Z,40.27
2019-02-17T02:34:23.055Z,45.60
2019-02-17T02:36:51.617Z,43.50
2019-02-17T02:39:20.210Z,38.83
2019-02-17T02:41:48.781Z,40.53
2019-02-17T02:44:17.438Z,39.67
2019-02-17T02:46:45.937Z,42.57
2019-02-17T02:49:14.518Z,44.63
2019-02-17T02:51:43.095Z,41.70
2019-02-17T02:54:11.677Z,41.67
2019-02-17T02:56:40.161Z,40.50
2019-02-17T02:59:08.737Z,39.13
2019-02-17T03:01:37.229Z,38.83
2019-02-17T03:04:05.817Z,42.80
2019-02-17T03:06:35.945Z,39.77
2019-02-17T03:09:05.658Z,37.60
2019-02-17T03:11:34.217Z,40.43
2019-02-17T03:14:02.872Z,40.97
2019-02-17T03:16:31.369Z,43.93
2019-02-17T03:18:59.941Z,39.67
2019-02-17T03:21:28.510Z,38.60
2019-02-17T03:23:57.102Z,42.10
2019-02-17T03:26:25.586Z,36.40
2019-02-17T03:28:54.174Z,38.53
2019-02-17T03:31:22.760Z,37.03
2019-02-17T03:33:51.352Z,39.30
2019-02-17T03:36:19.931Z,38.07
2019-02-17T03:38:48.522Z,36.03
2019-02-17T03:41:17.087Z,33.20
2019-02-17T03:43:45.665Z,37.80
2019-02-17T03:46:14.252Z,38.47
2019-02-17T03:48:42.835Z,36.30
2019-02-17T03:51:11.467Z,40.20
2019-02-17T03:53:42.057Z,33.57
2019-02-17T03:56:10.564Z,36.87
2019-02-17T03:58:39.150Z,34.77
2019-02-17T04:01:07.713Z,32.97
2019-02-17T04:03:36.302Z,35.83
2019-02-17T04:06:04.865Z,37.27
2019-02-17T04:08:33.477Z,39.33
2019-02-17T04:11:02.039Z,36.13
2019-02-17T04:13:30.603Z,34.60
2019-02-17T04:15:59.188Z,35.43
2019-02-17T04:18:27.766Z,34.97
2019-02-17T04:20:56.341Z,35.10
2019-02-17T04:23:31.283Z,37.07
2019-02-17T04:25:55.632Z,29.70
2019-02-17T04:28:24.263Z,36.20
2019-02-17T04:30:52.842Z,36.37
2019-02-17T04:33:21.419Z,32.30
2019-02-17T04:35:50.091Z,27.33
2019-02-17T04:38:18.653Z,33.83
2019-02-17T04:40:47.166Z,34.77
2019-02-17T04:43:15.785Z,35.80
2019-02-17T04:45:44.429Z,34.73
2019-02-17T04:48:12.999Z,34.23
2019-02-17T04:50:41.590Z,35.67
2019-02-17T04:53:10.280Z,33.03
2019-02-17T04:55:38.866Z,32.33
2019-02-17T04:58:07.438Z,37.67
2019-02-17T05:00:40.286Z,34.37
2019-02-17T05:03:06.312Z,39.93
2019-02-17T05:05:34.904Z,38.17
2019-02-17T05:08:03.575Z,41.93
2019-02-17T05:10:32.234Z,32.70
2019-02-17T05:13:00.797Z,33.90
2019-02-17T05:15:29.313Z,34.60
2019-02-17T05:17:57.823Z,36.33
2019-02-17T05:20:26.403Z,41.63
2019-02-17T05:22:54.964Z,33.33
2019-02-17T05:25:23.550Z,35.10
2019-02-17T05:27:52.134Z,34.13
2019-02-17T05:30:20.794Z,32.67
2019-02-17T05:32:49.355Z,31.83
2019-02-17T05:35:17.866Z,31.93
2019-02-17T05:37:46.451Z,34.63
2019-02-17T05:40:15.038Z,34.83
2019-02-17T05:42:43.598Z,36.00
2019-02-17T05:45:12.184Z,40.23
2019-02-17T05:47:40.761Z,38.67
2019-02-17T05:50:09.521Z,36.27
2019-02-17T05:52:38.081Z,37.83
2019-02-17T05:55:07.142Z,35.73
2019-02-17T05:57:35.711Z,35.33
2019-02-17T06:00:06.317Z,36.70
2019-02-17T06:02:34.989Z,35.57
2019-02-17T06:05:03.708Z,36.00
2019-02-17T06:07:32.234Z,37.83
2019-02-17T06:10:00.825Z,36.47
2019-02-17T06:12:29.388Z,36.83
2019-02-17T06:14:57.962Z,39.10
2019-02-17T06:17:26.563Z,34.00
2019-02-17T06:19:55.199Z,35.63
2019-02-17T06:22:23.782Z,30.93
2019-02-17T06:24:52.282Z,37.07
2019-02-17T06:27:20.797Z,32.63
2019-02-17T06:29:49.368Z,35.57
2019-02-17T06:32:17.950Z,35.80
2019-02-17T06:34:46.530Z,34.80
2019-02-17T06:37:15.259Z,34.27
2019-02-17T06:39:43.825Z,33.13
2019-02-17T06:42:12.442Z,35.87
2019-02-17T06:44:41.026Z,33.87
2019-02-17T06:47:11.174Z,31.70
2019-02-17T06:49:39.750Z,40.67
2019-02-17T06:52:08.261Z,36.53
2019-02-17T06:54:36.762Z,33.00
2019-02-17T06:57:06.993Z,35.07
2019-02-17T06:59:35.646Z,33.10
2019-02-17T07:02:04.227Z,33.77
2019-02-17T07:04:40.118Z,32.13
2019-02-17T07:07:08.794Z,36.03
2019-02-17T07:09:37.361Z,36.20
2019-02-17T07:12:05.937Z,40.27
2019-02-17T07:14:34.434Z,31.07
2019-02-17T07:17:03.017Z,31.73
2019-02-17T07:19:31.519Z,34.43
2019-02-17T07:22:00.093Z,39.73
2019-02-17T07:24:28.673Z,38.37
2019-02-17T07:26:57.271Z,38.80
2019-02-17T07:29:25.839Z,37.53
2019-02-17T07:31:54.490Z,34.30
2019-02-17T07:34:23.058Z,38.70
2019-02-17T07:36:51.765Z,33.07
2019-02-17T07:39:20.377Z,35.07
2019-02-17T07:41:49.103Z,35.03
2019-02-17T07:44:17.725Z,36.67
2019-02-17T07:46:46.430Z,36.13
2019-02-17T07:49:15.098Z,34.00
2019-02-17T07:51:43.684Z,34.80
2019-02-17T07:54:12.261Z,33.37
2019-02-17T07:56:40.829Z,31.23
2019-02-17T07:59:09.520Z,32.97
2019-02-17T08:01:44.953Z,37.77
2019-02-17T08:04:08.314Z,37.30
2019-02-17T08:06:36.871Z,34.60
2019-02-17T08:09:06.288Z,32.37
2019-02-17T08:11:34.777Z,33.03
2019-02-17T08:14:03.352Z,33.00
2019-02-17T08:16:31.848Z,34.50
2019-02-17T08:19:00.421Z,33.83
2019-02-17T08:21:28.985Z,33.57
2019-02-17T08:23:57.602Z,28.43
2019-02-17T08:26:28.474Z,35.27
2019-02-17T08:28:57.083Z,37.50
2019-02-17T08:31:25.645Z,31.10
2019-02-17T08:33:54.234Z,28.60
2019-02-17T08:36:22.813Z,29.53
2019-02-17T08:38:51.420Z,27.40
2019-02-17T08:41:19.982Z,32.13
2019-02-17T08:43:48.570Z,27.70
2019-02-17T08:46:17.134Z,24.27
2019-02-17T08:48:45.641Z,25.57
2019-02-17T08:51:14.146Z,27.57
2019-02-17T08:53:42.737Z,26.13
2019-02-17T08:56:11.297Z,25.13
2019-02-17T08:58:39.906Z,23.40
2019-02-17T09:01:08.458Z,26.70
2019-02-17T09:03:37.042Z,26.90
2019-02-17T09:06:05.602Z,20.40
2019-02-17T09:08:34.175Z,24.27
2019-02-17T09:11:02.754Z,23.90
2019-02-17T09:13:31.330Z,23.10
2019-02-17T09:15:59.922Z,22.80
2019-02-17T09:18:28.493Z,19.27
2019-02-17T09:20:57.105Z,24.77
2019-02-17T09:23:25.678Z,22.30
2019-02-17T09:25:54.262Z,23.40
2019-02-17T09:28:22.827Z,24.27
2019-02-17T09:30:51.419Z,22.47
2019-02-17T09:33:20.025Z,24.13
2019-02-17T09:35:48.562Z,22.97
2019-02-17T09:38:17.286Z,22.53
2019-02-17T09:40:45.818Z,20.67
2019-02-17T09:43:14.389Z,24.17
2019-02-17T09:45:42.975Z,20.73
2019-02-17T09:48:11.629Z,23.63
2019-02-17T09:50:40.208Z,22.47
2019-02-17T09:53:08.698Z,21.87
2019-02-17T09:55:37.292Z,21.10
2019-02-17T09:58:05.847Z,22.93
2019-02-17T10:00:34.483Z,26.07
2019-02-17T10:03:03.137Z,21.83
2019-02-17T10:05:31.721Z,20.57
2019-02-17T10:08:00.289Z,19.50
2019-02-17T10:10:28.881Z,20.27
2019-02-17T10:12:57.366Z,19.70
2019-02-17T10:15:26.438Z,19.80
2019-02-17T10:17:55.348Z,21.70
2019-02-17T10:20:24.591Z,20.13
2019-02-17T10:22:53.201Z,23.23
2019-02-17T10:25:22.029Z,26.17
2019-02-17T10:27:50.818Z,24.53
2019-02-17T10:30:19.493Z,23.63
2019-02-17T10:32:47.985Z,22.13
2019-02-17T10:35:16.504Z,23.57
2019-02-17T10:37:45.085Z,23.57
2019-02-17T10:40:16.681Z,21.80
2019-02-17T10:42:45.253Z,22.97
2019-02-17T10:45:14.098Z,21.57
2019-02-17T10:47:42.748Z,22.43
2019-02-17T10:50:12.570Z,19.30
2019-02-17T10:52:41.226Z,33.37
2019-02-17T10:55:11.757Z,26.87
2019-02-17T10:57:41.539Z,23.90
2019-02-17T11:00:15.050Z,22.67
2019-02-17T11:02:47.539Z,23.77
2019-02-17T11:05:15.468Z,25.73
2019-02-17T11:07:44.034Z,25.70
2019-02-17T11:10:13.992Z,25.90
2019-02-17T11:12:42.682Z,24.50
2019-02-17T11:15:14.366Z,22.47
2019-02-17T11:17:42.885Z,20.60
2019-02-17T11:20:12.123Z,23.93
2019-02-17T11:22:40.939Z,22.77
2019-02-17T11:25:11.301Z,26.23
2019-02-17T11:27:39.885Z,19.63
2019-02-17T11:30:21.828Z,22.33
2019-02-17T11:32:57.891Z,25.70
2019-02-17T11:35:22.040Z,23.07
2019-02-17T11:37:50.626Z,22.93
2019-02-17T11:40:19.203Z,21.83
2019-02-17T11:42:48.024Z,25.30
2019-02-17T11:45:18.509Z,25.07
2019-02-17T11:47:47.097Z,25.57
2019-02-17T11:50:15.989Z,28.83
2019-02-17T11:52:44.550Z,24.47
2019-02-17T11:55:14.702Z,22.30
2019-02-17T11:57:43.310Z,22.67
2019-02-17T12:00:22.326Z,29.10
2019-02-17T12:02:50.841Z,22.77
2019-02-17T12:05:19.401Z,26.07
2019-02-17T12:07:47.915Z,20.37
2019-02-17T12:10:16.498Z,23.23
2019-02-17T12:12:45.338Z,22.37
2019-02-17T12:15:14.574Z,23.93
2019-02-17T12:17:43.305Z,23.47
2019-02-17T12:20:24.525Z,23.50
2019-02-17T12:22:54.692Z,26.47
2019-02-17T12:25:24.913Z,25.57
2019-02-17T12:27:55.067Z,22.23
2019-02-17T12:30:23.640Z,24.27
2019-02-17T12:32:52.227Z,23.17
2019-02-17T12:35:20.836Z,26.30
2019-02-17T12:37:49.703Z,24.87
2019-02-17T12:40:18.282Z,26.47
2019-02-17T12:42:47.125Z,23.30
2019-02-17T12:45:18.409Z,23.43
2019-02-17T12:47:55.420Z,27.47
2019-02-17T12:50:17.282Z,23.70
2019-02-17T12:52:47.859Z,26.73
2019-02-17T12:55:16.522Z,21.63
2019-02-17T12:57:45.116Z,25.93
2019-02-17T13:00:16.310Z,20.93
2019-02-17T13:02:45.907Z,23.17
2019-02-17T13:05:14.903Z,23.53
2019-02-17T13:07:43.401Z,25.53
2019-02-17T13:10:12.506Z,22.93
2019-02-17T13:12:41.112Z,21.63
2019-02-17T13:15:11.890Z,29.37
2019-02-17T13:17:40.408Z,26.07
2019-02-17T13:20:11.421Z,24.17
2019-02-17T13:22:40.007Z,21.27
2019-02-17T13:25:13.821Z,22.63
2019-02-17T13:27:43.425Z,22.30
2019-02-17T13:30:17.233Z,20.83
2019-02-17T13:32:45.836Z,25.87
2019-02-17T13:35:15.868Z,23.60
2019-02-17T13:37:44.441Z,21.73
2019-02-17T13:40:14.072Z,20.00
2019-02-17T13:42:42.752Z,20.23
2019-02-17T13:45:13.945Z,20.90
2019-02-17T13:47:42.518Z,23.13
2019-02-17T13:50:15.425Z,21.63
2019-02-17T13:52:44.052Z,22.63
2019-02-17T13:55:12.782Z,21.20
2019-02-17T13:57:41.422Z,19.40
2019-02-17T14:00:15.346Z,19.40
2019-02-17T14:02:44.456Z,21.57
2019-02-17T14:05:13.846Z,20.13
2019-02-17T14:07:42.639Z,21.33
2019-02-17T14:10:12.773Z,25.97
2019-02-17T14:12:41.371Z,22.63
2019-02-17T14:15:14.766Z,21.03
2019-02-17T14:17:43.469Z,24.83
2019-02-17T14:20:12.191Z,21.13
2019-02-17T14:22:40.836Z,19.87
2019-02-17T14:25:11.203Z,23.47
2019-02-17T14:27:40.130Z,20.23
2019-02-17T14:30:15.995Z,20.57
2019-02-17T14:32:44.837Z,23.17
2019-02-17T14:35:13.505Z,21.77
2019-02-17T14:37:42.088Z,20.70
2019-02-17T14:40:14.163Z,26.10
2019-02-17T14:42:42.798Z,27.37
2019-02-17T14:45:15.102Z,21.43
2019-02-17T14:47:45.368Z,21.03
2019-02-17T14:50:15.491Z,22.63
2019-02-17T14:52:44.054Z,23.00
2019-02-17T14:55:13.105Z,21.47
2019-02-17T14:57:41.751Z,19.93
2019-02-17T15:00:20.970Z,20.90
2019-02-17T15:02:49.546Z,18.73
2019-02-17T15:05:18.148Z,19.83
2019-02-17T15:07:47.007Z,21.80
2019-02-17T15:10:15.666Z,15.27
2019-02-17T15:12:45.124Z,15.87
2019-02-17T15:15:15.558Z,17.17
2019-02-17T15:17:44.051Z,17.27
2019-02-17T15:20:15.859Z,15.17
2019-02-17T15:22:44.433Z,14.47
2019-02-17T15:25:13.297Z,14.63
2019-02-17T15:27:43.428Z,14.07
2019-02-17T15:30:14.216Z,14.37
2019-02-17T15:32:42.788Z,13.03
2019-02-17T15:35:12.557Z,22.27
2019-02-17T15:37:41.050Z,14.43
2019-02-17T15:40:12.056Z,18.97
2019-02-17T15:42:42.940Z,17.13
2019-02-17T15:45:13.170Z,17.87
2019-02-17T15:47:41.831Z,17.37
2019-02-17T15:50:12.445Z,16.63
2019-02-17T15:52:41.039Z,19.67
2019-02-17T15:55:13.672Z,19.30
2019-02-17T15:57:42.395Z,16.93
2019-02-17T16:00:18.414Z,16.67
2019-02-17T16:02:48.373Z,17.63
2019-02-17T16:05:17.182Z,17.00
2019-02-17T16:07:47.298Z,21.27
2019-02-17T16:10:16.902Z,17.17
2019-02-17T16:12:45.568Z,16.53
2019-02-17T16:15:16.948Z,17.43
2019-02-17T16:17:45.547Z,16.90
2019-02-17T16:20:14.650Z,18.90
2019-02-17T16:22:43.309Z,18.00
2019-02-17T16:25:12.215Z,20.20
2019-02-17T16:27:40.800Z,17.13
2019-02-17T16:30:22.560Z,20.03
2019-02-17T16:32:51.159Z,16.30
2019-02-17T16:35:19.736Z,16.67
2019-02-17T16:37:48.955Z,18.63
2019-02-17T16:40:18.281Z,17.57
2019-02-17T16:42:47.614Z,14.87
2019-02-17T16:45:17.757Z,17.30
2019-02-17T16:47:46.604Z,19.37
2019-02-17T16:50:23.119Z,16.70
2019-02-17T16:52:51.781Z,16.03
2019-02-17T16:55:20.708Z,16.10
2019-02-17T16:57:49.381Z,15.47
2019-02-17T17:00:25.499Z,15.60
2019-02-17T17:02:55.049Z,15.17
2019-02-17T17:05:24.334Z,18.50
2019-02-17T17:07:53.056Z,18.57
2019-02-17T17:10:21.782Z,17.27
2019-02-17T17:12:50.422Z,18.20
2019-02-17T17:15:19.166Z,15.97
2019-02-17T17:17:48.165Z,19.27
2019-02-17T17:20:22.133Z,20.33
2019-02-17T17:22:50.702Z,21.17
2019-02-17T17:25:20.825Z,19.43
2019-02-17T17:27:49.393Z,20.30
2019-02-17T17:30:19.215Z,21.97
2019-02-17T17:32:48.031Z,20.00
2019-02-17T17:35:16.646Z,19.57
2019-02-17T17:37:45.141Z,24.23
2019-02-17T17:40:16.004Z,25.10
2019-02-17T17:42:44.733Z,19.50
2019-02-17T17:45:18.203Z,21.73
2019-02-17T17:47:46.931Z,20.43
2019-02-17T17:50:16.294Z,23.47
2019-02-17T17:52:45.018Z,24.03
2019-02-17T17:55:14.070Z,20.17
2019-02-17T17:57:42.643Z,24.23
2019-02-17T18:00:16.950Z,21.10
2019-02-17T18:02:45.611Z,22.50
2019-02-17T18:05:15.599Z,24.67
2019-02-17T18:07:44.175Z,22.07
2019-02-17T18:10:17.436Z,24.07
2019-02-17T18:12:47.670Z,23.10
2019-02-17T18:15:18.714Z,23.33
2019-02-17T18:17:53.901Z,23.73
2019-02-17T18:20:17.434Z,24.40
2019-02-17T18:22:46.074Z,23.93
2019-02-17T18:25:15.258Z,27.17
2019-02-17T18:27:43.893Z,24.00
2019-02-17T18:30:17.557Z,27.73
2019-02-17T18:32:48.303Z,25.50
2019-02-17T18:35:20.351Z,24.10
2019-02-17T18:37:47.928Z,25.77
2019-02-17T18:40:18.175Z,23.77
2019-02-17T18:42:46.755Z,25.53
2019-02-17T18:45:16.490Z,23.73
2019-02-17T18:47:45.138Z,23.13
2019-02-17T18:50:17.996Z,22.90
2019-02-17T18:52:46.564Z,22.00
2019-02-17T18:55:15.317Z,23.60
2019-02-17T18:57:50.086Z,26.80
2019-02-17T19:00:20.240Z,27.23
2019-02-17T19:02:48.801Z,25.47
2019-02-17T19:05:20.026Z,30.57
2019-02-17T19:07:49.254Z,34.40
2019-02-17T19:10:17.849Z,35.43
2019-02-17T19:12:46.698Z,37.57
2019-02-17T19:15:16.733Z,40.80
2019-02-17T19:17:45.371Z,42.23
2019-02-17T19:20:26.430Z,40.00
2019-02-17T19:22:54.996Z,40.80
2019-02-17T19:25:23.585Z,43.80
2019-02-17T19:27:52.167Z,33.50
2019-02-17T19:30:20.778Z,37.60
2019-02-17T19:32:51.379Z,41.57
2019-02-17T19:35:21.526Z,40.73
2019-02-17T19:37:50.197Z,37.47
2019-02-17T19:40:18.777Z,35.73
2019-02-17T19:42:47.381Z,34.37
2019-02-17T19:45:20.915Z,28.90
2019-02-17T19:47:51.280Z,33.17
2019-02-17T19:50:19.930Z,31.13
2019-02-17T19:52:48.507Z,26.00
2019-02-17T19:55:17.095Z,25.70
2019-02-17T19:57:45.660Z,21.60
2019-02-17T20:00:16.971Z,23.77
2019-02-17T20:02:47.330Z,21.83
2019-02-17T20:05:24.142Z,21.40
2019-02-17T20:07:53.019Z,21.87
2019-02-17T20:10:21.575Z,17.87
2019-02-17T20:12:51.782Z,20.53
2019-02-17T20:15:21.542Z,17.30
2019-02-17T20:17:50.160Z,20.57
2019-02-17T20:20:18.808Z,18.57
2019-02-17T20:22:47.393Z,19.20
2019-02-17T20:25:15.956Z,20.07
2019-02-17T20:27:44.551Z,19.73
2019-02-17T20:30:15.069Z,22.53
2019-02-17T20:32:43.682Z,17.70
2019-02-17T20:35:12.283Z,20.80
2019-02-17T20:37:41.988Z,20.27
2019-02-17T20:40:13.616Z,19.43
2019-02-17T20:42:42.238Z,19.60
2019-02-17T20:45:12.045Z,26.03
2019-02-17T20:47:43.016Z,18.77
2019-02-17T20:50:13.818Z,23.73
2019-02-17T20:52:43.862Z,21.00
2019-02-17T20:55:13.149Z,23.00
2019-02-17T20:57:42.346Z,24.07
2019-02-17T21:00:24.684Z,23.50
2019-02-17T21:02:53.325Z,24.93
2019-02-17T21:05:23.846Z,26.37
2019-02-17T21:07:53.922Z,28.97
2019-02-17T21:10:22.707Z,28.03
2019-02-17T21:12:51.278Z,24.07
2019-02-17T21:15:21.499Z,23.73
2019-02-17T21:17:50.098Z,20.90
2019-02-17T21:20:19.515Z,22.53
2019-02-17T21:22:49.734Z,21.07
2019-02-17T21:25:18.269Z,21.57
2019-02-17T21:27:47.468Z,19.10
2019-02-17T21:30:19.724Z,17.70
2019-02-17T21:32:48.662Z,19.10
2019-02-17T21:35:17.592Z,20.30
2019-02-17T21:37:47.075Z,16.83
2019-02-17T21:40:15.922Z,18.43
2019-02-17T21:42:44.601Z,17.50
2019-02-17T21:45:17.969Z,20.53
2019-02-17T21:47:47.083Z,16.90
2019-02-17T21:50:16.071Z,18.87
2019-02-17T21:52:47.692Z,16.57
2019-02-17T21:55:16.419Z,18.30
2019-02-17T21:57:45.024Z,17.53
2019-02-17T22:00:21.213Z,18.13
2019-02-17T22:02:50.054Z,20.70
2019-02-17T22:05:19.501Z,19.03
2019-02-17T22:07:48.173Z,17.03
2019-02-17T22:10:20.347Z,16.43
2019-02-17T22:12:51.082Z,17.67
2019-02-17T22:15:20.652Z,15.50
2019-02-17T22:17:49.244Z,15.23
2019-02-17T22:20:18.414Z,16.93
2019-02-17T22:22:46.932Z,17.23
2019-02-17T22:25:18.752Z,15.57
2019-02-17T22:27:47.897Z,16.70
2019-02-17T22:30:16.549Z,16.93
2019-02-17T22:32:45.118Z,16.93
2019-02-17T22:35:13.861Z,18.50
2019-02-17T22:37:42.427Z,19.63
2019-02-17T22:40:12.880Z,15.43
2019-02-17T22:42:42.698Z,17.43
2019-02-17T22:45:12.084Z,17.77
2019-02-17T22:47:40.789Z,25.43
2019-02-17T22:50:16.757Z,17.20
2019-02-17T22:52:45.592Z,17.67
2019-02-17T22:55:14.633Z,16.87
2019-02-17T22:57:43.300Z,18.37
2019-02-17T23:00:45.710Z,16.60
2019-02-17T23:03:16.279Z,16.97
2019-02-17T23:05:45.692Z,18.73
2019-02-17T23:08:14.585Z,13.73
2019-02-17T23:10:44.218Z,16.30
2019-02-17T23:13:13.348Z,19.30
2019-02-17T23:15:43.449Z,17.83
2019-02-17T23:18:13.686Z,16.17
2019-02-17T23:20:42.296Z,17.40
2019-02-17T23:23:11.011Z,14.53
2019-02-17T23:25:39.588Z,16.17
2019-02-17T23:28:08.730Z,16.80
2019-02-17T23:30:37.338Z,17.10
2019-02-17T23:33:07.385Z,17.73
2019-02-17T23:35:36.973Z,19.53
2019-02-17T23:38:05.469Z,20.70
2019-02-17T23:40:34.122Z,13.83
2019-02-17T23:43:02.725Z,13.80
2019-02-17T23:45:31.278Z,15.07
2019-02-17T23:47:59.866Z,14.33
2019-02-17T23:50:29.038Z,13.87
2019-02-17T23:52:57.743Z,14.60
2019-02-17T23:55:28.124Z,15.67
2019-02-17T23:57:56.689Z,14.83
